Clifford, North Dakota
Current Conditions -  °F | °C
As of 7:55 AM on Wednesday 26 Nov 2014 (Local Time) from KBAC Reporting Station
Overcast Overcast  
Wind Chill: -16°   Ceiling: 9500
Heat Index:   Visibility: 10mi
Dew Point: -6°   Wind: 13mph
Humidity: 72%   Direction: 360°N
Pressure: 30.31"   Gusts: NA
Location:  47.35°N, 97.41°W
Report Text: KBAC 261355Z AUTO 36011KT 10SM SCT050 OVC095 M17/M21 A3031 RMK AO2
Loading
Personal Weather Stations






























Interactive Weather Map New forecast layout! Learn more

10-Day Weather Forecast

Advertisements
Track Severe Weather on mobile